createdAt,value
2023-06-22T00:02:28.106Z,12.07
2023-06-22T00:05:13.704Z,7.05
2023-06-22T00:08:05.007Z,15.82
2023-06-22T00:10:50.319Z,9.90
2023-06-22T00:13:36.147Z,8.73
2023-06-22T00:16:21.395Z,8.95
2023-06-22T00:19:06.954Z,9.55
2023-06-22T00:21:55.403Z,9.13
2023-06-22T00:24:40.711Z,6.50
2023-06-22T00:27:26.372Z,6.00
2023-06-22T00:30:12.162Z,6.95
2023-06-22T00:32:57.948Z,7.10
2023-06-22T00:35:43.684Z,6.20
2023-06-22T00:38:29.036Z,6.70
2023-06-22T00:41:14.535Z,5.97
2023-06-22T00:44:00.050Z,6.40
2023-06-22T00:46:45.897Z,6.25
2023-06-22T00:49:31.944Z,5.65
2023-06-22T00:52:21.981Z,6.70
2023-06-22T00:55:07.948Z,6.53
2023-06-22T00:57:57.928Z,6.72
2023-06-22T01:00:43.882Z,6.47
2023-06-22T01:03:29.808Z,5.80
2023-06-22T01:06:22.841Z,5.65
2023-06-22T01:09:19.001Z,6.07
2023-06-22T01:12:08.657Z,5.88
2023-06-22T01:15:08.005Z,5.90
2023-06-22T01:17:54.672Z,5.50
2023-06-22T01:20:41.910Z,6.18
2023-06-22T01:23:52.722Z,5.80
2023-06-22T01:27:14.942Z,5.65
2023-06-22T01:30:02.194Z,5.60
2023-06-22T01:32:49.487Z,7.05
2023-06-22T01:35:35.092Z,5.15
2023-06-22T01:38:21.036Z,5.47
2023-06-22T01:41:07.062Z,4.85
2023-06-22T01:43:53.829Z,5.30
2023-06-22T01:46:40.690Z,5.95
2023-06-22T01:49:26.535Z,5.93
2023-06-22T01:52:12.320Z,5.72
2023-06-22T01:54:59.125Z,5.15
2023-06-22T01:57:44.787Z,6.32
2023-06-22T02:00:34.476Z,5.15
2023-06-22T02:03:24.264Z,5.78
2023-06-22T02:06:15.943Z,6.10
2023-06-22T02:09:04.232Z,5.90
2023-06-22T02:11:55.904Z,5.70
2023-06-22T02:14:42.086Z,5.40
2023-06-22T02:17:28.167Z,5.60
2023-06-22T02:20:15.310Z,6.10
2023-06-22T02:23:00.915Z,5.53
2023-06-22T02:25:46.833Z,6.05
2023-06-22T02:28:31.977Z,5.95
2023-06-22T02:31:17.490Z,6.10
2023-06-22T02:34:03.264Z,5.75
2023-06-22T02:36:52.973Z,6.20
2023-06-22T02:39:38.768Z,6.30
2023-06-22T02:42:24.115Z,5.82
2023-06-22T02:45:10.024Z,5.40
2023-06-22T02:47:56.611Z,5.70
2023-06-22T02:50:42.125Z,5.85
2023-06-22T02:53:27.524Z,5.95
2023-06-22T02:56:13.926Z,6.05
2023-06-22T02:59:02.431Z,6.70
2023-06-22T03:01:47.919Z,6.10
2023-06-22T03:04:33.667Z,5.38
2023-06-22T03:07:19.297Z,5.80
2023-06-22T03:10:05.445Z,5.55
2023-06-22T03:12:51.683Z,5.53
2023-06-22T03:15:36.943Z,5.63
2023-06-22T03:18:23.548Z,5.60
2023-06-22T03:21:08.867Z,6.25
2023-06-22T03:23:54.524Z,7.10
2023-06-22T03:26:40.000Z,7.22
2023-06-22T03:29:28.318Z,5.88
2023-06-22T03:32:14.922Z,6.65
2023-06-22T03:35:00.568Z,5.47
2023-06-22T03:37:45.956Z,5.82
2023-06-22T03:40:31.889Z,5.07
2023-06-22T03:43:17.794Z,5.43
2023-06-22T03:46:03.403Z,6.15
2023-06-22T03:48:49.015Z,5.90
2023-06-22T03:51:34.687Z,5.57
2023-06-22T03:54:20.219Z,6.28
2023-06-22T03:57:06.683Z,6.95
2023-06-22T03:59:51.832Z,6.18
2023-06-22T04:02:37.427Z,5.72
2023-06-22T04:05:22.944Z,7.07
2023-06-22T04:08:09.006Z,4.90
2023-06-22T04:10:54.753Z,5.75
2023-06-22T04:13:39.849Z,5.82
2023-06-22T04:16:25.423Z,5.90
2023-06-22T04:19:17.262Z,5.35
2023-06-22T04:22:02.713Z,5.28
2023-06-22T04:24:48.630Z,5.80
2023-06-22T04:27:38.285Z,6.03
2023-06-22T04:30:23.849Z,6.85
2023-06-22T04:33:10.412Z,7.20
2023-06-22T04:35:56.077Z,5.88
2023-06-22T04:38:41.570Z,5.75
2023-06-22T04:41:26.906Z,5.47
2023-06-22T04:44:25.838Z,6.47
2023-06-22T04:47:11.486Z,5.90
2023-06-22T04:49:56.701Z,5.35
2023-06-22T04:52:42.312Z,5.38
2023-06-22T04:55:27.915Z,5.88
2023-06-22T04:58:14.065Z,5.70
2023-06-22T05:00:59.640Z,6.05
2023-06-22T05:03:45.368Z,5.72
2023-06-22T05:06:30.922Z,7.18
2023-06-22T05:09:16.350Z,6.63
2023-06-22T05:12:03.723Z,7.18
2023-06-22T05:14:49.053Z,5.88
2023-06-22T05:17:35.172Z,6.32
2023-06-22T05:20:20.710Z,6.72
2023-06-22T05:23:05.989Z,6.95
2023-06-22T05:25:52.631Z,7.47
2023-06-22T05:28:37.825Z,8.00
2023-06-22T05:31:23.748Z,6.50
2023-06-22T05:34:09.154Z,7.03
2023-06-22T05:36:54.410Z,7.03
2023-06-22T05:39:39.908Z,7.35
2023-06-22T05:42:26.838Z,6.45
2023-06-22T05:45:12.172Z,7.20
2023-06-22T05:47:57.718Z,7.22
2023-06-22T05:50:43.850Z,7.35
2023-06-22T05:53:29.201Z,7.38
2023-06-22T05:56:14.517Z,7.30
2023-06-22T05:59:00.088Z,8.98
2023-06-22T06:01:45.827Z,7.93
2023-06-22T06:04:31.526Z,8.15
2023-06-22T06:07:17.168Z,7.80
2023-06-22T06:10:02.980Z,7.93
2023-06-22T06:12:48.296Z,7.13
2023-06-22T06:15:35.376Z,5.88
2023-06-22T06:18:20.826Z,5.90
2023-06-22T06:21:06.811Z,5.78
2023-06-22T06:23:52.005Z,6.38
2023-06-22T06:26:37.833Z,6.13
2023-06-22T06:29:24.843Z,6.25
2023-06-22T06:32:10.355Z,6.65
2023-06-22T06:34:55.832Z,6.18
2023-06-22T06:37:43.701Z,6.50
2023-06-22T06:40:29.339Z,5.82
2023-06-22T06:43:14.981Z,5.75
2023-06-22T06:46:00.535Z,5.57
2023-06-22T06:48:46.234Z,6.22
2023-06-22T06:51:32.047Z,5.85
2023-06-22T06:54:17.555Z,5.78
2023-06-22T06:57:04.272Z,6.13
2023-06-22T06:59:50.587Z,6.55
2023-06-22T07:02:36.606Z,6.00
2023-06-22T07:05:21.949Z,5.35
2023-06-22T07:08:07.219Z,6.55
2023-06-22T07:10:53.760Z,5.78
2023-06-22T07:13:39.562Z,5.88
2023-06-22T07:16:26.803Z,6.35
2023-06-22T07:19:15.868Z,6.32
2023-06-22T07:22:01.698Z,6.72
2023-06-22T07:24:47.080Z,6.22
2023-06-22T07:27:36.943Z,6.35
2023-06-22T07:30:22.370Z,6.30
2023-06-22T07:33:09.984Z,6.90
2023-06-22T07:35:55.942Z,6.40
2023-06-22T07:38:41.508Z,6.70
2023-06-22T07:41:27.165Z,7.22
2023-06-22T07:44:12.702Z,7.05
2023-06-22T07:46:58.000Z,7.93
2023-06-22T07:49:43.629Z,8.55
2023-06-22T07:52:32.968Z,9.02
2023-06-22T07:55:18.158Z,6.55
2023-06-22T07:58:03.650Z,6.00
2023-06-22T08:00:50.658Z,6.10
2023-06-22T08:03:36.129Z,7.07
2023-06-22T08:06:21.793Z,6.35
2023-06-22T08:09:07.776Z,6.55
2023-06-22T08:11:53.361Z,5.88
2023-06-22T08:14:40.058Z,5.75
2023-06-22T08:17:27.492Z,6.10
2023-06-22T08:20:13.812Z,6.43
2023-06-22T08:23:06.248Z,5.22
2023-06-22T08:25:51.832Z,5.53
2023-06-22T08:28:37.437Z,5.97
2023-06-22T08:31:22.976Z,6.07
2023-06-22T08:34:08.351Z,5.60
2023-06-22T08:36:53.951Z,6.10
2023-06-22T08:39:40.183Z,6.82
2023-06-22T08:42:26.702Z,6.97
2023-06-22T08:45:13.340Z,5.85
2023-06-22T08:47:59.042Z,6.22
2023-06-22T08:50:44.624Z,6.68
2023-06-22T08:53:33.200Z,6.60
2023-06-22T08:56:19.222Z,6.70
2023-06-22T08:59:04.663Z,6.07
2023-06-22T09:01:50.028Z,7.40
2023-06-22T09:04:36.199Z,6.13
2023-06-22T09:07:23.567Z,6.85
2023-06-22T09:10:09.509Z,6.28
2023-06-22T09:12:55.151Z,6.95
2023-06-22T09:15:40.970Z,6.78
2023-06-22T09:18:26.672Z,6.20
2023-06-22T09:21:12.049Z,6.75
2023-06-22T09:23:58.005Z,5.90
2023-06-22T09:26:43.506Z,5.50
2023-06-22T09:29:28.789Z,6.32
2023-06-22T09:32:14.450Z,6.47
2023-06-22T09:34:59.976Z,6.43
2023-06-22T09:37:46.319Z,6.88
2023-06-22T09:40:33.890Z,5.75
2023-06-22T09:43:19.218Z,5.20
2023-06-22T09:46:04.574Z,6.30
2023-06-22T09:48:50.213Z,5.47
2023-06-22T09:51:35.751Z,5.60
2023-06-22T09:54:21.003Z,6.05
2023-06-22T09:57:06.597Z,6.05
2023-06-22T09:59:52.016Z,7.13
2023-06-22T10:02:37.783Z,5.65
2023-06-22T10:05:23.585Z,6.43
2023-06-22T10:08:11.255Z,6.25
2023-06-22T10:10:56.529Z,7.00
2023-06-22T10:13:42.064Z,5.80
2023-06-22T10:16:32.736Z,6.03
2023-06-22T10:19:17.995Z,6.00
2023-06-22T10:22:03.925Z,6.60
2023-06-22T10:24:49.486Z,5.47
2023-06-22T10:27:34.975Z,6.50
2023-06-22T10:30:20.760Z,6.05
2023-06-22T10:33:06.136Z,5.38
2023-06-22T10:35:52.070Z,6.05
2023-06-22T10:38:37.325Z,7.07
2023-06-22T10:41:22.974Z,6.18
2023-06-22T10:44:08.366Z,6.10
2023-06-22T10:46:53.995Z,6.47
2023-06-22T10:49:43.158Z,6.45
2023-06-22T10:52:31.842Z,6.07
2023-06-22T10:55:17.908Z,6.00
2023-06-22T10:58:04.822Z,6.10
2023-06-22T11:00:53.529Z,6.53
2023-06-22T11:03:39.353Z,7.03
2023-06-22T11:06:25.071Z,6.15
2023-06-22T11:09:23.707Z,6.20
2023-06-22T11:12:11.075Z,7.20
2023-06-22T11:17:43.932Z,5.90
2023-06-22T11:20:29.634Z,7.95
2023-06-22T11:23:15.919Z,6.53
2023-06-22T11:26:01.491Z,6.53
2023-06-22T11:28:47.406Z,6.57
2023-06-22T11:31:33.707Z,7.30
2023-06-22T11:34:20.217Z,7.38
2023-06-22T11:37:06.034Z,7.55
2023-06-22T11:39:59.695Z,7.78
2023-06-22T11:42:52.875Z,7.82
2023-06-22T11:45:38.142Z,8.07
2023-06-22T11:48:23.857Z,8.13
2023-06-22T11:51:09.744Z,7.68
2023-06-22T11:53:55.701Z,8.95
2023-06-22T11:56:40.936Z,8.05
2023-06-22T11:59:26.876Z,9.32
2023-06-22T12:02:12.847Z,8.95
2023-06-22T12:05:03.812Z,8.60
2023-06-22T12:07:50.098Z,7.53
2023-06-22T12:10:38.009Z,6.93
2023-06-22T12:13:23.413Z,7.80
2023-06-22T12:16:09.302Z,7.07
2023-06-22T12:18:55.176Z,7.65
2023-06-22T12:21:41.951Z,6.90
2023-06-22T12:24:27.699Z,7.20
2023-06-22T12:27:13.134Z,8.48
2023-06-22T12:29:58.528Z,7.20
2023-06-22T12:32:43.897Z,6.40
2023-06-22T12:35:29.453Z,6.78
2023-06-22T12:38:14.760Z,6.25
2023-06-22T12:41:00.391Z,6.22
2023-06-22T12:43:45.896Z,6.30
2023-06-22T12:46:38.431Z,5.45
2023-06-22T12:49:24.097Z,4.90
2023-06-22T12:52:12.664Z,6.40
2023-06-22T12:54:58.352Z,5.22
2023-06-22T12:57:44.107Z,5.35
2023-06-22T13:00:29.650Z,4.65
2023-06-22T13:03:15.637Z,5.10
2023-06-22T13:06:01.376Z,4.60
2023-06-22T13:09:18.610Z,3.90
2023-06-22T13:11:53.913Z,3.83
2023-06-22T13:14:39.547Z,3.15
2023-06-22T13:17:24.768Z,3.08
2023-06-22T13:20:10.843Z,3.50
2023-06-22T13:22:57.272Z,2.97
2023-06-22T13:25:42.743Z,2.92
2023-06-22T13:28:30.295Z,2.55
2023-06-22T13:31:15.639Z,3.97
2023-06-22T13:34:01.307Z,4.00
2023-06-22T13:36:47.205Z,3.50
2023-06-22T13:39:32.676Z,2.83
2023-06-22T13:42:18.453Z,3.58
2023-06-22T13:45:04.954Z,3.30
2023-06-22T13:47:50.202Z,3.40
2023-06-22T13:50:35.700Z,3.33
2023-06-22T13:53:21.296Z,3.42
2023-06-22T13:56:06.610Z,3.28
2023-06-22T13:58:52.153Z,3.35
2023-06-22T14:01:40.020Z,4.07
2023-06-22T14:04:25.548Z,3.60
2023-06-22T14:07:11.046Z,4.32
2023-06-22T14:09:56.358Z,3.53
2023-06-22T14:12:41.646Z,3.38
2023-06-22T14:15:26.997Z,3.35
2023-06-22T14:18:12.574Z,4.15
2023-06-22T14:20:57.929Z,3.70
2023-06-22T14:23:48.360Z,3.63
2023-06-22T14:26:33.721Z,4.15
2023-06-22T14:29:19.054Z,3.45
2023-06-22T14:32:05.643Z,3.95
2023-06-22T14:34:51.277Z,3.95
2023-06-22T14:37:36.545Z,4.10
2023-06-22T14:40:23.629Z,4.00
2023-06-22T14:43:09.415Z,3.65
2023-06-22T14:45:54.929Z,3.88
2023-06-22T14:48:40.510Z,4.03
2023-06-22T14:51:25.807Z,3.67
2023-06-22T14:54:11.204Z,3.88
2023-06-22T14:56:56.775Z,3.40
2023-06-22T14:59:42.215Z,3.80
2023-06-22T15:02:28.119Z,3.20
2023-06-22T15:05:13.755Z,3.20
2023-06-22T15:07:59.389Z,2.97
2023-06-22T15:10:44.935Z,3.15
2023-06-22T15:13:35.133Z,2.78
2023-06-22T15:16:20.507Z,2.70
2023-06-22T15:19:06.120Z,2.90
2023-06-22T15:21:51.702Z,2.58
2023-06-22T15:24:37.087Z,2.63
2023-06-22T15:27:22.391Z,2.30
2023-06-22T15:30:08.688Z,2.60
2023-06-22T15:32:54.250Z,2.28
2023-06-22T15:35:39.554Z,2.30
2023-06-22T15:38:25.190Z,2.38
2023-06-22T15:41:10.668Z,2.50
2023-06-22T15:43:56.550Z,3.13
2023-06-22T15:46:41.924Z,2.50
2023-06-22T15:49:28.620Z,2.78
2023-06-22T15:52:14.137Z,3.17
2023-06-22T15:55:01.616Z,2.35
2023-06-22T15:57:50.381Z,2.38
2023-06-22T16:00:35.732Z,3.22
2023-06-22T16:03:21.022Z,2.60
2023-06-22T16:06:06.444Z,2.97
2023-06-22T16:08:52.392Z,2.50
2023-06-22T16:11:37.777Z,3.00
2023-06-22T16:14:23.528Z,2.92
2023-06-22T16:17:09.125Z,3.00
2023-06-22T16:19:55.781Z,3.22
2023-06-22T16:22:41.569Z,3.63
2023-06-22T16:25:27.655Z,3.03
2023-06-22T16:28:13.454Z,2.70
2023-06-22T16:30:59.050Z,2.38
2023-06-22T16:33:48.078Z,1.63
2023-06-22T16:36:33.401Z,2.05
2023-06-22T16:39:19.214Z,1.55
2023-06-22T16:42:04.674Z,2.00
2023-06-22T16:44:50.136Z,1.80
2023-06-22T16:47:36.346Z,1.27
2023-06-22T16:50:22.156Z,1.08
2023-06-22T16:53:07.382Z,1.20
2023-06-22T16:55:53.804Z,1.30
2023-06-22T16:58:42.038Z,1.30
2023-06-22T17:01:30.349Z,1.42
2023-06-22T17:04:20.936Z,1.70
2023-06-22T17:07:12.379Z,1.55
2023-06-22T17:09:58.545Z,1.60
2023-06-22T17:12:44.651Z,1.23
2023-06-22T17:15:32.828Z,1.17
2023-06-22T17:18:19.733Z,1.30
2023-06-22T17:21:05.033Z,1.45
2023-06-22T17:23:55.031Z,1.52
2023-06-22T17:26:40.676Z,1.50
2023-06-22T17:29:36.948Z,1.35
2023-06-22T17:32:22.912Z,1.67
2023-06-22T17:35:11.890Z,1.52
2023-06-22T17:37:58.670Z,1.80
2023-06-22T17:40:44.283Z,1.75
2023-06-22T17:43:30.058Z,1.33
2023-06-22T17:46:17.664Z,1.30
2023-06-22T17:49:07.403Z,1.30
2023-06-22T17:51:53.985Z,1.73
2023-06-22T17:54:51.518Z,1.33
2023-06-22T17:57:44.584Z,1.40
2023-06-22T18:00:30.199Z,1.20
2023-06-22T18:03:15.907Z,1.30
2023-06-22T18:06:01.945Z,1.83
2023-06-22T18:08:49.573Z,1.20
2023-06-22T18:11:56.852Z,1.40
2023-06-22T18:14:43.210Z,1.40
2023-06-22T18:17:28.943Z,1.50
2023-06-22T18:20:14.275Z,1.20
2023-06-22T18:23:00.326Z,1.50
2023-06-22T18:25:46.615Z,1.20
2023-06-22T18:28:32.659Z,1.27
2023-06-22T18:31:20.343Z,1.48
2023-06-22T18:34:08.227Z,1.35
2023-06-22T18:36:56.897Z,1.38
2023-06-22T18:39:46.621Z,1.63
2023-06-22T18:42:32.437Z,1.63
2023-06-22T18:45:29.276Z,1.67
2023-06-22T18:48:23.422Z,1.73
2023-06-22T18:51:12.640Z,1.40
2023-06-22T18:54:08.088Z,1.42
2023-06-22T18:56:58.274Z,1.50
2023-06-22T19:00:10.356Z,1.77
2023-06-22T19:03:00.002Z,1.80
2023-06-22T19:05:45.708Z,1.50
2023-06-22T19:09:09.897Z,2.00
2023-06-22T19:12:17.986Z,1.80
2023-06-22T19:15:14.444Z,1.80
2023-06-22T19:18:15.447Z,1.95
2023-06-22T19:21:03.298Z,1.85
2023-06-22T19:23:49.503Z,1.80
2023-06-22T19:26:36.224Z,1.60
2023-06-22T19:29:22.415Z,1.92
2023-06-22T19:32:11.310Z,2.40
2023-06-22T19:34:57.255Z,1.92
2023-06-22T19:37:42.723Z,2.08
2023-06-22T19:40:28.347Z,2.30
2023-06-22T19:43:17.654Z,1.92
2023-06-22T19:46:03.362Z,2.05
2023-06-22T19:48:51.938Z,3.13
2023-06-22T19:51:37.609Z,1.90
2023-06-22T19:54:23.290Z,2.38
2023-06-22T19:57:10.358Z,2.10
2023-06-22T19:59:55.773Z,2.22
2023-06-22T20:02:45.758Z,2.83
2023-06-22T20:05:31.554Z,2.05
2023-06-22T20:08:17.681Z,2.58
2023-06-22T20:11:03.015Z,2.20
2023-06-22T20:13:50.143Z,2.63
2023-06-22T20:16:49.114Z,2.17
2023-06-22T20:19:41.931Z,2.63
2023-06-22T20:22:27.818Z,2.10
2023-06-22T20:25:13.515Z,2.60
2023-06-22T20:28:06.694Z,2.25
2023-06-22T20:31:11.145Z,2.60
2023-06-22T20:36:51.602Z,2.42
2023-06-22T20:39:37.621Z,2.70
2023-06-22T20:42:23.514Z,2.28
2023-06-22T20:45:09.983Z,2.90
2023-06-22T20:47:56.950Z,2.40
2023-06-22T20:50:43.009Z,2.55
2023-06-22T20:53:32.268Z,2.58
2023-06-22T20:56:18.381Z,2.47
2023-06-22T20:59:03.696Z,2.83
2023-06-22T21:01:49.274Z,2.40
2023-06-22T21:04:37.418Z,2.80
2023-06-22T21:07:23.343Z,2.72
2023-06-22T21:10:09.206Z,3.35
2023-06-22T21:12:54.370Z,2.90
2023-06-22T21:15:39.950Z,3.10
2023-06-22T21:18:25.564Z,3.03
2023-06-22T21:21:11.142Z,3.47
2023-06-22T21:23:56.968Z,2.75
2023-06-22T21:26:42.299Z,2.63
2023-06-22T21:29:27.857Z,2.80
2023-06-22T21:32:13.030Z,3.72
2023-06-22T21:34:58.848Z,2.75
2023-06-22T21:37:45.981Z,3.00
2023-06-22T21:40:31.284Z,2.53
2023-06-22T21:43:16.585Z,3.10
2023-06-22T21:46:01.895Z,2.72
2023-06-22T21:48:47.304Z,3.08
2023-06-22T21:51:34.995Z,2.63
2023-06-22T21:54:20.840Z,2.55
2023-06-22T21:57:06.780Z,2.13
2023-06-22T21:59:52.218Z,2.53
2023-06-22T22:02:37.894Z,2.75
2023-06-22T22:05:23.926Z,2.25
2023-06-22T22:08:10.154Z,2.20
2023-06-22T22:10:55.828Z,2.60
2023-06-22T22:13:41.994Z,2.30
2023-06-22T22:16:27.302Z,2.42
2023-06-22T22:19:14.883Z,2.58
2023-06-22T22:22:00.224Z,2.35
2023-06-22T22:24:45.710Z,2.22
2023-06-22T22:27:31.239Z,2.58
2023-06-22T22:30:16.781Z,2.20
2023-06-22T22:33:02.432Z,1.92
2023-06-22T22:35:48.267Z,2.20
2023-06-22T22:38:35.857Z,2.13
2023-06-22T22:41:21.576Z,2.50
2023-06-22T22:44:07.233Z,1.90
2023-06-22T22:46:52.644Z,2.08
2023-06-22T22:49:38.268Z,1.88
2023-06-22T22:52:23.520Z,2.13
2023-06-22T22:55:10.222Z,1.90
2023-06-22T22:57:55.665Z,1.92
2023-06-22T23:00:41.564Z,2.10
2023-06-22T23:03:27.190Z,2.13
2023-06-22T23:06:12.581Z,2.63
2023-06-22T23:08:58.772Z,2.10
2023-06-22T23:11:44.274Z,2.00
2023-06-22T23:14:29.810Z,2.33
2023-06-22T23:17:15.599Z,2.33
2023-06-22T23:20:08.376Z,2.05
2023-06-22T23:23:00.207Z,1.85
2023-06-22T23:25:46.214Z,1.88
2023-06-22T23:28:37.661Z,1.88
2023-06-22T23:31:23.511Z,2.17
2023-06-22T23:34:09.357Z,2.33
2023-06-22T23:36:54.506Z,1.98
2023-06-22T23:39:44.585Z,2.00
2023-06-22T23:42:30.223Z,2.20
2023-06-22T23:45:18.360Z,2.40
2023-06-22T23:48:04.166Z,2.28
2023-06-22T23:50:51.229Z,2.47
2023-06-22T23:53:37.222Z,2.38
2023-06-22T23:56:23.311Z,2.58
2023-06-22T23:59:09.563Z,2.00
